createdAt,value
2022-11-17T00:02:26.680Z,2.70
2022-11-17T00:09:48.264Z,2.60
2022-11-17T00:15:01.255Z,2.70
2022-11-17T00:17:28.255Z,2.80
2022-11-17T00:20:13.867Z,2.70
2022-11-17T00:25:08.300Z,2.90
2022-11-17T00:27:35.189Z,2.70
2022-11-17T00:40:28.940Z,2.70
2022-11-17T00:47:50.604Z,2.60
2022-11-17T00:52:44.884Z,2.40
2022-11-17T00:55:11.780Z,2.40
2022-11-17T00:57:38.712Z,2.40
2022-11-17T01:00:06.190Z,2.70
2022-11-17T01:05:00.344Z,2.60
2022-11-17T01:07:27.307Z,2.30
2022-11-17T01:12:21.516Z,2.50
2022-11-17T01:14:48.420Z,2.40
2022-11-17T01:17:18.157Z,2.40
2022-11-17T01:19:45.016Z,2.60
2022-11-17T01:24:40.056Z,2.50
2022-11-17T01:29:34.243Z,2.30
2022-11-17T01:34:28.532Z,2.80
2022-11-17T01:37:14.075Z,2.10
2022-11-17T01:42:21.802Z,2.30
2022-11-17T01:45:14.837Z,2.30
2022-11-17T01:47:55.265Z,2.60
2022-11-17T01:50:36.021Z,2.20
2022-11-17T01:53:14.194Z,2.00
2022-11-17T01:55:50.481Z,2.10
2022-11-17T01:58:28.957Z,2.10
2022-11-17T02:00:56.005Z,2.10
2022-11-17T02:03:24.871Z,2.10
2022-11-17T02:06:08.603Z,2.10
2022-11-17T02:08:38.757Z,2.10
2022-11-17T02:11:11.635Z,4.10
2022-11-17T02:13:40.292Z,2.00
2022-11-17T02:16:12.244Z,2.00
2022-11-17T02:18:40.478Z,1.90
2022-11-17T02:21:22.073Z,1.80
2022-11-17T02:24:21.124Z,1.90
2022-11-17T02:27:04.290Z,1.80
2022-11-17T02:29:43.524Z,1.90
2022-11-17T02:32:44.418Z,1.90
2022-11-17T02:35:14.298Z,2.00
2022-11-17T02:37:44.234Z,2.00
2022-11-17T02:40:18.828Z,1.90
2022-11-17T02:43:10.839Z,2.10
2022-11-17T02:45:42.536Z,1.70
2022-11-17T02:48:14.553Z,1.70
2022-11-17T02:50:44.976Z,1.80
2022-11-17T02:53:13.239Z,1.80
2022-11-17T02:55:40.110Z,1.90
2022-11-17T02:58:12.095Z,1.80
2022-11-17T03:00:50.761Z,1.50
2022-11-17T03:03:44.034Z,3.10
2022-11-17T03:06:26.178Z,1.80
2022-11-17T03:09:09.681Z,1.90
2022-11-17T03:12:00.742Z,1.80
2022-11-17T03:14:44.032Z,1.70
2022-11-17T03:17:15.597Z,1.70
2022-11-17T03:19:47.950Z,1.80
2022-11-17T03:22:42.995Z,1.70
2022-11-17T03:25:14.669Z,1.70
2022-11-17T03:27:47.194Z,2.20
2022-11-17T03:30:15.516Z,1.80
2022-11-17T03:32:46.834Z,1.80
2022-11-17T03:35:22.564Z,1.80
2022-11-17T03:37:56.100Z,2.00
2022-11-17T03:40:27.876Z,1.70
2022-11-17T03:42:59.359Z,1.80
2022-11-17T03:45:35.975Z,1.70
2022-11-17T03:48:28.691Z,1.60
2022-11-17T03:51:12.376Z,1.50
2022-11-17T03:53:39.633Z,1.50
2022-11-17T03:56:35.498Z,1.50
2022-11-17T03:59:32.064Z,1.50
2022-11-17T04:07:13.806Z,1.60
2022-11-17T04:15:12.518Z,1.60
2022-11-17T04:25:01.648Z,2.20
2022-11-17T04:27:54.720Z,1.60
2022-11-17T04:35:16.048Z,1.30
2022-11-17T04:42:37.758Z,1.40
2022-11-17T04:49:59.276Z,2.10
2022-11-17T05:02:18.674Z,1.50
2022-11-17T05:15:06.278Z,1.30
2022-11-17T05:27:41.444Z,1.40
2022-11-17T05:30:09.201Z,1.40
2022-11-17T05:32:36.112Z,1.50
2022-11-17T05:35:02.946Z,1.10
2022-11-17T05:37:29.835Z,1.60
2022-11-17T05:39:56.691Z,1.40
2022-11-17T05:42:23.589Z,1.30
2022-11-17T05:47:17.679Z,1.40
2022-11-17T05:49:44.598Z,1.50
2022-11-17T05:54:38.706Z,2.40
2022-11-17T05:57:16.146Z,1.20
2022-11-17T05:59:59.680Z,1.20
2022-11-17T06:02:36.746Z,1.30
2022-11-17T06:12:25.631Z,1.20
2022-11-17T06:17:34.960Z,1.20
2022-11-17T06:20:19.971Z,1.20
2022-11-17T06:22:48.651Z,1.30
2022-11-17T06:25:17.693Z,1.20
2022-11-17T06:27:45.544Z,1.10
2022-11-17T06:30:12.654Z,1.30
2022-11-17T06:32:43.693Z,1.10
2022-11-17T06:35:13.432Z,1.30
2022-11-17T06:40:08.475Z,1.30
2022-11-17T06:45:21.085Z,1.40
2022-11-17T06:50:15.581Z,1.20
2022-11-17T06:52:42.472Z,1.30
2022-11-17T06:57:37.074Z,0.90
2022-11-17T07:00:06.204Z,1.20
2022-11-17T07:17:17.247Z,1.20
2022-11-17T07:27:06.622Z,1.40
2022-11-17T07:32:00.822Z,1.30
2022-11-17T07:41:49.409Z,1.20
2022-11-17T07:46:43.467Z,0.90
2022-11-17T07:49:10.276Z,1.10
2022-11-17T07:56:31.788Z,1.20
2022-11-17T08:01:27.681Z,1.50
2022-11-17T08:08:51.342Z,1.50
2022-11-17T08:16:14.419Z,2.50
2022-11-17T08:18:41.653Z,1.50
2022-11-17T08:21:13.800Z,1.70
2022-11-17T08:23:41.943Z,1.60
2022-11-17T08:26:11.557Z,1.70
2022-11-17T08:28:38.869Z,1.80
2022-11-17T08:31:07.807Z,1.70
2022-11-17T08:33:35.992Z,1.50
2022-11-17T08:36:04.516Z,1.50
2022-11-17T08:41:01.883Z,1.60
2022-11-17T08:43:29.575Z,1.60
2022-11-17T08:45:56.727Z,1.80
2022-11-17T08:53:20.832Z,2.70
2022-11-17T08:55:48.093Z,1.80
2022-11-17T09:00:42.916Z,1.80
2022-11-17T09:03:10.780Z,1.80
2022-11-17T09:05:43.844Z,1.90
2022-11-17T09:08:43.470Z,1.90
2022-11-17T09:10:58.716Z,2.00
2022-11-17T09:15:52.875Z,2.00
2022-11-17T09:18:19.764Z,1.80
2022-11-17T09:28:08.446Z,1.90
2022-11-17T09:38:01.606Z,2.00
2022-11-17T09:40:33.171Z,1.80
2022-11-17T09:43:11.223Z,1.70
2022-11-17T09:45:40.004Z,1.80
2022-11-17T09:50:57.657Z,1.10
2022-11-17T09:53:35.965Z,1.90
2022-11-17T09:56:06.883Z,1.70
2022-11-17T09:59:12.188Z,1.70
2022-11-17T10:04:16.907Z,1.90
2022-11-17T10:06:47.260Z,1.90
2022-11-17T10:09:55.310Z,1.80
2022-11-17T10:12:26.788Z,2.40
2022-11-17T10:14:55.771Z,1.60
2022-11-17T10:17:22.712Z,1.50
2022-11-17T10:19:49.665Z,1.80
2022-11-17T10:22:35.910Z,1.80
2022-11-17T10:27:32.823Z,2.50
2022-11-17T10:30:01.257Z,2.00
2022-11-17T10:32:34.305Z,1.90
2022-11-17T10:35:18.019Z,1.70
2022-11-17T10:38:06.915Z,1.60
2022-11-17T10:40:48.159Z,1.50
2022-11-17T10:43:16.916Z,1.70
2022-11-17T10:45:47.968Z,1.60
2022-11-17T10:48:20.758Z,1.40
2022-11-17T10:50:56.632Z,1.50
2022-11-17T10:53:27.283Z,1.40
2022-11-17T10:56:19.024Z,1.70
2022-11-17T10:59:03.822Z,2.00
2022-11-17T11:01:34.042Z,1.70
2022-11-17T11:04:02.783Z,1.60
2022-11-17T11:06:32.005Z,1.60
2022-11-17T11:09:04.624Z,1.50
2022-11-17T11:11:53.663Z,1.60
2022-11-17T11:14:44.975Z,1.60
2022-11-17T11:17:13.550Z,1.70
2022-11-17T11:19:43.291Z,1.70
2022-11-17T11:22:31.880Z,2.00
2022-11-17T11:25:25.369Z,1.60
2022-11-17T11:28:00.480Z,2.00
2022-11-17T11:30:27.689Z,2.00
2022-11-17T11:33:31.226Z,1.80
2022-11-17T11:36:25.288Z,1.60
2022-11-17T11:39:15.778Z,1.50
2022-11-17T11:44:35.076Z,1.50
2022-11-17T11:47:14.408Z,1.70
2022-11-17T11:49:56.457Z,1.50
2022-11-17T11:52:31.244Z,1.60
2022-11-17T11:55:05.850Z,1.30
2022-11-17T11:57:45.513Z,1.20
2022-11-17T12:00:17.768Z,1.70
2022-11-17T12:02:58.780Z,1.10
2022-11-17T12:05:46.939Z,0.60
2022-11-17T12:08:31.991Z,1.20
2022-11-17T12:11:46.803Z,1.30
2022-11-17T12:14:18.651Z,1.40
2022-11-17T12:16:48.124Z,1.50
2022-11-17T12:19:50.566Z,1.10
2022-11-17T12:22:48.753Z,1.60
2022-11-17T12:25:18.177Z,1.80
2022-11-17T12:27:52.798Z,1.60
2022-11-17T12:30:34.713Z,1.50
2022-11-17T12:33:06.572Z,1.20
2022-11-17T12:35:35.899Z,1.70
2022-11-17T12:38:17.182Z,1.40
2022-11-17T12:40:48.722Z,1.30
2022-11-17T12:43:15.618Z,1.40
2022-11-17T12:46:03.945Z,1.50
2022-11-17T12:48:36.358Z,1.20
2022-11-17T12:51:30.408Z,1.40
2022-11-17T12:54:03.522Z,1.90
2022-11-17T12:56:32.803Z,1.50
2022-11-17T12:59:41.921Z,1.50
2022-11-17T13:02:37.898Z,1.40
2022-11-17T13:05:14.672Z,1.30
2022-11-17T13:10:27.191Z,1.10
2022-11-17T13:13:26.632Z,0.90
2022-11-17T13:15:56.515Z,-3.10
2022-11-17T13:18:33.853Z,0.50
2022-11-17T13:21:01.983Z,0.60
2022-11-17T13:23:33.388Z,0.80
2022-11-17T13:26:16.478Z,0.40
2022-11-17T13:28:44.746Z,0.70
2022-11-17T13:31:19.719Z,0.70
2022-11-17T13:34:04.557Z,0.30
2022-11-17T13:36:31.905Z,1.10
2022-11-17T13:41:38.016Z,0.70
2022-11-17T13:44:08.580Z,0.60
2022-11-17T13:46:36.300Z,0.80
2022-11-17T13:49:38.900Z,0.90
2022-11-17T13:52:35.274Z,0.70
2022-11-17T13:55:10.505Z,0.80
2022-11-17T13:57:37.697Z,2.00
2022-11-17T14:00:05.275Z,0.90
2022-11-17T14:05:11.126Z,1.10
2022-11-17T14:07:39.423Z,0.80
2022-11-17T14:10:21.451Z,0.90
2022-11-17T14:12:53.236Z,0.70
2022-11-17T14:15:24.656Z,0.80
2022-11-17T14:17:59.309Z,1.80
2022-11-17T14:23:08.747Z,0.80
2022-11-17T14:25:40.330Z,0.80
2022-11-17T14:28:14.924Z,0.70
2022-11-17T14:35:41.193Z,0.30
2022-11-17T14:38:15.086Z,0.60
2022-11-17T14:40:42.366Z,0.40
2022-11-17T14:43:09.248Z,0.70
2022-11-17T14:45:36.160Z,0.70
2022-11-17T14:48:06.089Z,0.70
2022-11-17T14:50:33.807Z,0.40
2022-11-17T14:53:00.736Z,0.50
2022-11-17T15:00:22.811Z,0.50
2022-11-17T15:02:49.679Z,0.60
2022-11-17T15:05:16.954Z,0.50
2022-11-17T15:07:43.842Z,0.70
2022-11-17T15:10:11.288Z,0.60
2022-11-17T15:12:38.164Z,1.10
2022-11-17T15:20:00.676Z,0.10
2022-11-17T15:24:55.444Z,0.70
2022-11-17T15:29:50.193Z,0.60
2022-11-17T15:32:17.277Z,0.40
2022-11-17T15:37:11.528Z,0.70
2022-11-17T15:42:05.829Z,0.40
2022-11-17T15:44:32.693Z,0.30
2022-11-17T15:46:59.960Z,0.50
2022-11-17T16:01:47.124Z,0.30
2022-11-17T16:04:18.256Z,0.40
2022-11-17T16:06:46.536Z,0.40
2022-11-17T16:09:15.100Z,0.30
2022-11-17T16:14:09.972Z,0.60
2022-11-17T16:16:39.650Z,0.50
2022-11-17T16:19:07.164Z,0.40
2022-11-17T16:24:02.368Z,0.70
2022-11-17T16:26:30.099Z,-0.70
2022-11-17T16:29:02.252Z,1.60
2022-11-17T16:31:31.237Z,0.50
2022-11-17T16:34:06.282Z,0.50
2022-11-17T16:36:36.744Z,0.50
2022-11-17T16:39:08.934Z,0.50
2022-11-17T16:41:37.867Z,0.30
2022-11-17T16:44:10.641Z,0.10
2022-11-17T16:46:38.379Z,0.40
2022-11-17T16:49:07.724Z,0.40
2022-11-17T16:54:05.036Z,0.40
2022-11-17T16:56:33.249Z,0.40
2022-11-17T16:59:00.660Z,0.40
2022-11-17T17:01:32.451Z,0.40
2022-11-17T17:04:01.720Z,0.50
2022-11-17T17:06:29.338Z,0.40
2022-11-17T17:09:05.913Z,0.20
2022-11-17T17:11:34.696Z,0.60
2022-11-17T17:14:03.455Z,0.60
2022-11-17T17:16:32.534Z,0.50
2022-11-17T17:19:04.359Z,0.40
2022-11-17T17:26:29.382Z,0.10
2022-11-17T17:28:58.374Z,0.50
2022-11-17T17:31:27.142Z,0.60
2022-11-17T17:33:55.316Z,0.50
2022-11-17T17:36:24.823Z,0.40
2022-11-17T17:38:56.102Z,0.10
2022-11-17T17:41:28.892Z,0.20
2022-11-17T17:44:01.753Z,0.20
2022-11-17T17:51:28.242Z,0.10
2022-11-17T17:53:58.047Z,0.20
2022-11-17T17:56:25.654Z,0.10
2022-11-17T17:58:55.529Z,0.30
2022-11-17T18:01:33.423Z,0.30
2022-11-17T18:04:05.116Z,0.20
2022-11-17T18:06:37.459Z,0.20
2022-11-17T18:09:06.553Z,-0.10
2022-11-17T18:16:31.202Z,0.20
2022-11-17T18:19:06.519Z,1.30
2022-11-17T18:24:02.509Z,0.00
2022-11-17T18:26:34.336Z,-0.10
2022-11-17T18:29:02.434Z,0.10
2022-11-17T18:31:32.331Z,0.20
2022-11-17T18:34:02.542Z,0.00
2022-11-17T18:41:27.052Z,0.00
2022-11-17T18:43:55.253Z,0.20
2022-11-17T18:46:23.820Z,0.30
2022-11-17T18:48:51.949Z,0.00
2022-11-17T18:51:24.592Z,0.10
2022-11-17T18:53:53.034Z,0.10
2022-11-17T18:56:23.204Z,-0.20
2022-11-17T18:58:50.648Z,0.00
2022-11-17T19:01:20.189Z,-0.10
2022-11-17T19:03:49.639Z,-0.10
2022-11-17T19:06:18.603Z,-0.90
2022-11-17T19:08:46.397Z,-0.30
2022-11-17T19:13:42.449Z,0.30
2022-11-17T19:16:16.698Z,0.20
2022-11-17T19:18:44.970Z,0.20
2022-11-17T19:21:20.823Z,0.20
2022-11-17T19:23:51.805Z,0.00
2022-11-17T19:26:30.771Z,0.00
2022-11-17T19:29:03.208Z,0.10
2022-11-17T19:31:30.188Z,-0.30
2022-11-17T19:33:58.028Z,-0.60
2022-11-17T19:36:29.361Z,-0.60
2022-11-17T19:38:58.104Z,-0.10
2022-11-17T19:41:36.394Z,-0.40
2022-11-17T19:44:05.873Z,-0.30
2022-11-17T19:46:33.219Z,-0.40
2022-11-17T19:51:30.749Z,-0.20
2022-11-17T19:54:01.131Z,-0.20
2022-11-17T19:58:55.764Z,0.10
2022-11-17T20:01:30.539Z,-0.40
2022-11-17T20:04:00.114Z,-0.10
2022-11-17T20:06:31.996Z,-0.40
2022-11-17T20:11:27.700Z,-0.50
2022-11-17T20:13:55.489Z,-0.50
2022-11-17T20:16:27.190Z,-0.20
2022-11-17T20:18:56.984Z,-0.40
2022-11-17T20:21:25.341Z,-0.40
2022-11-17T20:26:25.222Z,-0.70
2022-11-17T20:28:52.808Z,-0.80
2022-11-17T20:31:25.306Z,-0.60
2022-11-17T20:33:56.479Z,-0.60
2022-11-17T20:38:58.643Z,-0.70
2022-11-17T20:41:26.308Z,-0.70
2022-11-17T20:43:55.611Z,-0.70
2022-11-17T20:46:23.510Z,-0.60
2022-11-17T20:51:21.271Z,-0.10
2022-11-17T20:53:48.553Z,-0.60
2022-11-17T20:56:16.780Z,-1.70
2022-11-17T21:01:16.889Z,-0.20
2022-11-17T21:03:45.334Z,-0.50
2022-11-17T21:06:13.125Z,0.10
2022-11-17T21:08:41.503Z,-0.40
2022-11-17T21:11:32.924Z,-0.80
2022-11-17T21:14:00.451Z,-0.30
2022-11-17T21:16:27.509Z,-0.30
2022-11-17T21:21:21.683Z,-0.40
2022-11-17T21:26:19.862Z,-0.60
2022-11-17T21:28:47.518Z,-0.40
2022-11-17T21:31:16.544Z,-0.50
2022-11-17T21:33:44.658Z,-0.70
2022-11-17T21:36:15.650Z,-0.70
2022-11-17T21:38:43.715Z,-0.50
2022-11-17T21:41:13.573Z,-0.60
2022-11-17T21:43:42.550Z,-0.30
2022-11-17T21:46:12.873Z,-0.50
2022-11-17T21:51:14.093Z,-0.30
2022-11-17T21:53:41.003Z,-0.30
2022-11-17T22:01:11.330Z,-1.00
2022-11-17T22:03:39.206Z,-0.60
2022-11-17T22:06:15.126Z,-0.70
2022-11-17T22:08:43.971Z,0.20
2022-11-17T22:11:13.385Z,-0.60
2022-11-17T22:13:41.253Z,0.00
2022-11-17T22:16:14.105Z,-0.60
2022-11-17T22:18:41.976Z,-0.60
2022-11-17T22:21:09.671Z,-0.50
2022-11-17T22:23:36.751Z,-0.50
2022-11-17T22:26:06.387Z,-0.80
2022-11-17T22:28:33.346Z,-0.70
2022-11-17T22:33:27.546Z,-0.70
2022-11-17T22:35:59.371Z,-0.80
2022-11-17T22:38:29.241Z,-0.80
2022-11-17T22:41:03.619Z,-0.80
2022-11-17T22:43:30.897Z,-0.60
2022-11-17T22:48:25.452Z,-0.70
2022-11-17T23:00:44.429Z,-0.80
2022-11-17T23:03:12.534Z,-0.50
2022-11-17T23:05:39.530Z,0.50
2022-11-17T23:08:09.748Z,-0.70
2022-11-17T23:13:04.564Z,-0.50
2022-11-17T23:15:32.457Z,-0.40
2022-11-17T23:20:26.524Z,-0.50
2022-11-17T23:22:54.768Z,-0.20
2022-11-17T23:25:21.996Z,-0.60
2022-11-17T23:27:48.861Z,-0.40
2022-11-17T23:30:16.094Z,-0.40
2022-11-17T23:32:43.613Z,-0.60
2022-11-17T23:42:33.438Z,-0.80
2022-11-17T23:45:01.492Z,-0.90
2022-11-17T23:49:55.615Z,-0.40
2022-11-17T23:52:22.733Z,-0.40
2022-11-17T23:54:49.651Z,-0.30
2022-11-17T23:59:43.773Z,-0.80
